Time,TemperatureF,DewpointF,PressureIn,WindDirection,WindDirectionDegrees,WindSpeedMPH,WindSpeedGustMPH,Humidity,HourlyPrecipIn,Conditions,Clouds,dailyrainin,SoftwareType,DateUTC
2013-03-30 00:02:00,49.0,45.0,30.12,West,269,4.0,9.0,87,0.00,,,0.00,,2013-03-30 07:02:00,
2013-03-30 00:12:00,49.0,45.0,30.12,West,269,4.0,9.0,87,0.00,,,0.00,,2013-03-30 07:12:00,
2013-03-30 00:22:00,48.0,46.0,30.12,ESE,119,0.0,4.0,92,0.00,,,0.00,,2013-03-30 07:22:00,
2013-03-30 00:32:00,48.0,46.0,30.12,NE,56,0.0,1.0,94,0.00,,,0.00,,2013-03-30 07:32:00,
2013-03-30 00:42:00,48.0,46.0,30.12,NE,56,0.0,1.0,94,0.00,,,0.00,,2013-03-30 07:42:00,
2013-03-30 00:52:00,48.0,47.0,30.11,East,90,6.0,10.0,95,0.00,,,0.00,,2013-03-30 07:52:00,
2013-03-30 01:01:00,48.0,47.0,30.11,East,90,5.0,7.0,96,0.00,,,0.00,,2013-03-30 08:01:00,
2013-03-30 01:12:00,48.0,47.0,30.11,East,90,5.0,7.0,96,0.00,,,0.00,,2013-03-30 08:12:00,
2013-03-30 01:21:00,47.0,46.0,30.11,East,86,4.0,6.0,96,0.00,,,0.00,,2013-03-30 08:21:00,
2013-03-30 01:32:00,47.0,46.0,30.11,ESE,111,6.0,8.0,96,0.00,,,0.00,,2013-03-30 08:32:00,
2013-03-30 01:42:00,47.0,46.0,30.11,ESE,111,6.0,8.0,96,0.00,,,0.00,,2013-03-30 08:42:00,
2013-03-30 01:52:00,47.0,46.0,30.11,East,95,8.0,11.0,96,0.00,,,0.00,,2013-03-30 08:52:00,
2013-03-30 02:01:00,47.0,46.0,30.12,East,88,2.0,10.0,97,0.00,,,0.00,,2013-03-30 09:01:00,
2013-03-30 02:12:00,47.0,46.0,30.12,East,88,2.0,10.0,97,0.00,,,0.00,,2013-03-30 09:12:00,
2013-03-30 02:22:00,48.0,47.0,30.12,NE,34,3.0,6.0,97,0.00,,,0.00,,2013-03-30 09:22:00,
2013-03-30 02:33:00,50.0,49.0,30.11,ENE,67,3.0,5.0,96,0.00,,,0.00,,2013-03-30 09:33:00,
2013-03-30 02:42:00,50.0,49.0,30.11,ENE,67,3.0,5.0,96,0.00,,,0.00,,2013-03-30 09:42:00,
2013-03-30 02:52:00,52.0,48.0,30.11,East,79,3.0,5.0,86,0.00,,,0.00,,2013-03-30 09:52:00,
2013-03-30 03:02:00,53.0,48.0,30.11,SE,124,0.0,5.0,82,0.00,,,0.00,,2013-03-30 10:02:00,
2013-03-30 03:12:00,53.0,48.0,30.11,SE,124,0.0,5.0,82,0.00,,,0.00,,2013-03-30 10:12:00,
2013-03-30 03:22:00,53.0,47.0,30.10,North,360,5.0,6.0,80,0.00,,,0.00,,2013-03-30 10:22:00,
2013-03-30 03:32:00,55.0,45.0,30.10,East,86,7.0,9.0,68,0.00,,,0.00,,2013-03-30 10:32:00,
2013-03-30 03:42:00,55.0,45.0,30.10,East,86,7.0,9.0,68,0.00,,,0.00,,2013-03-30 10:42:00,
2013-03-30 03:52:00,56.0,44.0,30.10,WNW,286,3.0,7.0,65,0.00,,,0.00,,2013-03-30 10:52:00,
2013-03-30 04:03:00,57.0,41.0,30.09,ESE,109,0.0,4.0,56,0.00,,,0.00,,2013-03-30 11:03:00,
2013-03-30 04:22:00,56.0,44.0,30.09,ESE,109,1.0,4.0,64,0.00,,,0.00,,2013-03-30 11:22:00,
2013-03-30 04:32:00,54.0,46.0,30.09,West,275,6.0,7.0,75,0.00,,,0.00,,2013-03-30 11:32:00,
2013-03-30 04:42:00,54.0,46.0,30.09,West,275,6.0,7.0,75,0.00,,,0.00,,2013-03-30 11:42:00,
2013-03-30 04:52:00,53.0,47.0,30.09,West,268,9.0,11.0,79,0.00,,,0.00,,2013-03-30 11:52:00,
2013-03-30 05:02:00,53.0,46.0,30.09,West,264,9.0,11.0,77,0.00,,,0.00,,2013-03-30 12:02:00,
2013-03-30 05:12:00,53.0,46.0,30.09,West,264,9.0,11.0,77,0.00,,,0.00,,2013-03-30 12:12:00,
2013-03-30 05:22:00,52.0,46.0,30.09,West,274,0.0,8.0,81,0.00,,,0.00,,2013-03-30 12:22:00,
2013-03-30 05:32:00,50.0,46.0,30.10,NW,304,1.0,4.0,85,0.00,,,0.00,,2013-03-30 12:32:00,
2013-03-30 05:42:00,50.0,46.0,30.10,NW,304,1.0,4.0,85,0.00,,,0.00,,2013-03-30 12:42:00,
2013-03-30 05:52:00,47.0,45.0,30.09,NE,53,6.0,10.0,91,0.00,,,0.00,,2013-03-30 12:52:00,
2013-03-30 06:02:00,49.0,47.0,30.09,ENE,60,0.0,5.0,92,0.00,,,0.00,,2013-03-30 13:02:00,
2013-03-30 06:12:00,49.0,47.0,30.09,ENE,60,0.0,5.0,92,0.00,,,0.00,,2013-03-30 13:12:00,
2013-03-30 06:22:00,50.0,46.0,30.11,SSE,150,0.0,6.0,85,0.00,,,0.00,,2013-03-30 13:22:00,
2013-03-30 06:32:00,47.0,45.0,30.11,ESE,116,6.0,9.0,92,0.00,,,0.00,,2013-03-30 13:32:00,
2013-03-30 06:42:00,47.0,45.0,30.11,ESE,116,6.0,9.0,92,0.00,,,0.00,,2013-03-30 13:42:00,
2013-03-30 06:52:00,47.0,46.0,30.11,East,98,1.0,6.0,95,0.00,,,0.00,,2013-03-30 13:52:00,
2013-03-30 07:02:00,47.0,46.0,30.11,West,261,1.0,10.0,95,0.00,,,0.00,,2013-03-30 14:02:00,
2013-03-30 07:11:00,47.0,46.0,30.11,West,261,1.0,10.0,95,0.00,,,0.00,,2013-03-30 14:11:00,
2013-03-30 07:22:00,47.0,46.0,30.11,West,271,4.0,6.0,96,0.00,,,0.00,,2013-03-30 14:22:00,
2013-03-30 07:32:00,47.0,46.0,30.12,WNW,288,6.0,8.0,96,0.00,,,0.00,,2013-03-30 14:32:00,
2013-03-30 07:42:00,47.0,46.0,30.12,WNW,288,6.0,8.0,96,0.00,,,0.00,,2013-03-30 14:42:00,
2013-03-30 07:52:00,47.0,46.0,30.12,West,275,7.0,10.0,96,0.00,,,0.00,,2013-03-30 14:52:00,
2013-03-30 08:02:00,47.0,46.0,30.12,West,264,4.0,7.0,97,0.00,,,0.00,,2013-03-30 15:02:00,
2013-03-30 08:12:00,47.0,46.0,30.12,West,264,4.0,7.0,97,0.00,,,0.00,,2013-03-30 15:12:00,
2013-03-30 08:22:00,50.0,49.0,30.12,West,265,2.0,3.0,98,0.00,,,0.00,,2013-03-30 15:22:00,
2013-03-30 08:33:00,53.0,45.0,30.12,West,265,1.0,4.0,73,0.00,,,0.00,,2013-03-30 15:33:00,
2013-03-30 08:42:00,53.0,45.0,30.12,West,265,1.0,4.0,73,0.00,,,0.00,,2013-03-30 15:42:00,
2013-03-30 08:52:00,55.0,44.0,30.13,West,265,0.0,3.0,67,0.00,,,0.00,,2013-03-30 15:52:00,
2013-03-30 09:03:00,55.0,44.0,30.13,West,265,0.0,3.0,67,0.00,,,0.00,,2013-03-30 16:03:00,
2013-03-30 09:12:00,59.0,49.0,30.13,SE,125,0.0,5.0,69,0.00,,,0.00,,2013-03-30 16:12:00,
2013-03-30 09:22:00,59.0,49.0,30.13,SE,125,0.0,5.0,69,0.00,,,0.00,,2013-03-30 16:22:00,
2013-03-30 09:32:00,52.0,49.0,30.14,North,5,0.0,6.0,89,0.00,,,0.00,,2013-03-30 16:32:00,
2013-03-30 09:42:00,52.0,49.0,30.14,North,5,0.0,6.0,89,0.00,,,0.00,,2013-03-30 16:42:00,
2013-03-30 09:52:00,56.0,51.0,30.14,SE,139,1.0,8.0,83,0.00,,,0.00,,2013-03-30 16:52:00,
2013-03-30 10:02:00,55.0,49.0,30.15,SE,140,6.0,8.0,81,0.00,,,0.00,,2013-03-30 17:02:00,
2013-03-30 10:13:00,55.0,49.0,30.15,SE,140,6.0,8.0,81,0.00,,,0.00,,2013-03-30 17:13:00,
2013-03-30 10:22:00,51.0,48.0,30.15,ESE,118,9.0,12.0,91,0.00,,,0.00,,2013-03-30 17:22:00,
2013-03-30 10:32:00,52.0,50.0,30.15,East,100,8.0,12.0,92,0.00,,,0.00,,2013-03-30 17:32:00,
2013-03-30 10:42:00,52.0,50.0,30.15,East,100,8.0,12.0,92,0.00,,,0.00,,2013-03-30 17:42:00,
2013-03-30 10:52:00,55.0,52.0,30.15,ESE,105,4.0,11.0,89,0.00,,,0.00,,2013-03-30 17:52:00,
2013-03-30 11:02:00,60.0,51.0,30.15,ENE,70,1.0,6.0,71,0.00,,,0.00,,2013-03-30 18:02:00,
2013-03-30 11:12:00,62.0,51.0,30.16,North,360,0.0,8.0,66,0.00,,,0.00,,2013-03-30 18:12:00,
2013-03-30 11:21:00,62.0,51.0,30.16,North,360,0.0,8.0,66,0.00,,,0.00,,2013-03-30 18:21:00,
2013-03-30 11:32:00,57.0,50.0,30.16,WNW,290,8.0,14.0,78,0.00,,,0.00,,2013-03-30 18:32:00,
2013-03-30 11:42:00,57.0,50.0,30.16,WNW,290,8.0,14.0,78,0.00,,,0.00,,2013-03-30 18:42:00,
2013-03-30 11:52:00,56.0,51.0,30.16,West,263,8.0,11.0,82,0.00,,,0.00,,2013-03-30 18:52:00,
2013-03-30 12:02:00,56.0,51.0,30.16,NW,309,4.0,8.0,83,0.00,,,0.00,,2013-03-30 19:02:00,
2013-03-30 12:12:00,56.0,51.0,30.16,NW,309,4.0,8.0,83,0.00,,,0.00,,2013-03-30 19:12:00,
2013-03-30 12:21:00,56.0,50.0,30.16,WNW,290,4.0,9.0,81,0.00,,,0.00,,2013-03-30 19:21:00,
2013-03-30 12:32:00,58.0,50.0,30.16,WNW,300,5.0,8.0,75,0.00,,,0.00,,2013-03-30 19:32:00,
2013-03-30 12:42:00,58.0,50.0,30.16,WNW,300,5.0,8.0,75,0.00,,,0.00,,2013-03-30 19:42:00,
2013-03-30 12:52:00,59.0,51.0,30.15,West,275,3.0,10.0,74,0.00,,,0.00,,2013-03-30 19:52:00,
2013-03-30 13:02:00,62.0,52.0,30.15,West,275,5.0,8.0,69,0.00,,,0.00,,2013-03-30 20:02:00,
2013-03-30 13:12:00,62.0,52.0,30.15,West,275,5.0,8.0,69,0.00,,,0.00,,2013-03-30 20:12:00,
2013-03-30 13:21:00,62.0,52.0,30.14,West,277,5.0,12.0,70,0.00,,,0.00,,2013-03-30 20:21:00,
2013-03-30 13:32:00,61.0,51.0,30.14,WNW,300,8.0,13.0,69,0.00,,,0.00,,2013-03-30 20:32:00,
2013-03-30 13:42:00,61.0,51.0,30.14,WNW,300,8.0,13.0,69,0.00,,,0.00,,2013-03-30 20:42:00,
2013-03-30 13:52:00,61.0,52.0,30.14,WSW,257,4.0,10.0,72,0.00,,,0.00,,2013-03-30 20:52:00,
2013-03-30 14:02:00,61.0,51.0,30.14,West,278,3.0,7.0,70,0.00,,,0.00,,2013-03-30 21:02:00,
2013-03-30 14:12:00,61.0,51.0,30.14,West,278,3.0,7.0,70,0.00,,,0.00,,2013-03-30 21:12:00,
2013-03-30 14:22:00,63.0,52.0,30.14,NW,304,1.0,7.0,67,0.00,,,0.00,,2013-03-30 21:22:00,
2013-03-30 14:33:00,62.0,52.0,30.13,West,273,0.0,7.0,69,0.00,,,0.00,,2013-03-30 21:33:00,
2013-03-30 14:43:00,62.0,52.0,30.13,West,273,0.0,7.0,69,0.00,,,0.00,,2013-03-30 21:43:00,
2013-03-30 14:52:00,65.0,50.0,30.13,ESE,108,0.0,4.0,58,0.00,,,0.00,,2013-03-30 21:52:00,
2013-03-30 15:02:00,62.0,49.0,30.13,NW,314,5.0,9.0,63,0.00,,,0.00,,2013-03-30 22:02:00,
2013-03-30 15:12:00,62.0,49.0,30.13,NW,314,5.0,9.0,63,0.00,,,0.00,,2013-03-30 22:12:00,
2013-03-30 15:23:00,59.0,48.0,30.12,NW,314,1.0,7.0,68,0.00,,,0.00,,2013-03-30 22:23:00,
2013-03-30 15:32:00,61.0,49.0,30.12,WNW,296,4.0,8.0,64,0.00,,,0.00,,2013-03-30 22:32:00,
2013-03-30 15:43:00,61.0,49.0,30.12,WNW,296,4.0,8.0,64,0.00,,,0.00,,2013-03-30 22:43:00,
2013-03-30 15:52:00,59.0,46.0,30.11,NW,306,6.0,13.0,62,0.00,,,0.00,,2013-03-30 22:52:00,
2013-03-30 16:02:00,59.0,44.0,30.11,WNW,284,10.0,14.0,58,0.00,,,0.00,,2013-03-30 23:02:00,
2013-03-30 16:12:00,59.0,44.0,30.11,WNW,284,10.0,14.0,58,0.00,,,0.00,,2013-03-30 23:12:00,
2013-03-30 16:22:00,59.0,44.0,30.11,WNW,296,8.0,16.0,58,0.00,,,0.00,,2013-03-30 23:22:00,
2013-03-30 16:32:00,60.0,43.0,30.11,WSW,256,6.0,14.0,54,0.00,,,0.00,,2013-03-30 23:32:00,
2013-03-30 16:42:00,60.0,43.0,30.11,WSW,256,6.0,14.0,54,0.00,,,0.00,,2013-03-30 23:42:00,
2013-03-30 16:52:00,59.0,42.0,30.10,West,279,7.0,13.0,54,0.00,,,0.00,,2013-03-30 23:52:00,
2013-03-30 17:02:00,61.0,44.0,30.11,West,277,6.0,10.0,53,0.00,,,0.00,,2013-03-31 00:02:00,
2013-03-30 17:12:00,61.0,44.0,30.11,West,277,6.0,10.0,53,0.00,,,0.00,,2013-03-31 00:12:00,
2013-03-30 17:22:00,61.0,44.0,30.10,WNW,283,4.0,9.0,53,0.00,,,0.00,,2013-03-31 00:22:00,
2013-03-30 17:32:00,61.0,43.0,30.10,West,269,5.0,10.0,51,0.00,,,0.00,,2013-03-31 00:32:00,
2013-03-30 17:42:00,61.0,43.0,30.10,West,269,5.0,10.0,51,0.00,,,0.00,,2013-03-31 00:42:00,
2013-03-30 17:52:00,60.0,44.0,30.09,WNW,288,6.0,12.0,56,0.00,,,0.00,,2013-03-31 00:52:00,
2013-03-30 18:02:00,59.0,44.0,30.09,West,265,7.0,12.0,57,0.00,,,0.00,,2013-03-31 01:02:00,
2013-03-30 18:12:00,59.0,44.0,30.09,West,265,7.0,12.0,57,0.00,,,0.00,,2013-03-31 01:12:00,
2013-03-30 18:22:00,59.0,37.0,30.10,WNW,300,8.0,12.0,44,0.00,,,0.00,,2013-03-31 01:22:00,
2013-03-30 18:32:00,60.0,36.0,30.09,WNW,282,8.0,13.0,40,0.00,,,0.00,,2013-03-31 01:32:00,
2013-03-30 18:52:00,57.0,47.0,30.10,West,263,8.0,11.0,70,0.00,,,0.00,,2013-03-31 01:52:00,
2013-03-30 19:02:00,53.0,48.0,30.10,WNW,298,8.0,10.0,82,0.00,,,0.00,,2013-03-31 02:02:00,
2013-03-30 19:12:00,53.0,48.0,30.10,WNW,298,8.0,10.0,82,0.00,,,0.00,,2013-03-31 02:12:00,
2013-03-30 19:22:00,51.0,48.0,30.10,West,272,7.0,10.0,88,0.00,,,0.00,,2013-03-31 02:22:00,
2013-03-30 19:32:00,53.0,43.0,30.09,West,277,7.0,10.0,70,0.00,,,0.00,,2013-03-31 02:32:00,
2013-03-30 19:42:00,53.0,43.0,30.09,West,277,7.0,10.0,70,0.00,,,0.00,,2013-03-31 02:42:00,
2013-03-30 19:52:00,53.0,42.0,30.09,WNW,288,6.0,11.0,67,0.00,,,0.00,,2013-03-31 02:52:00,
2013-03-30 20:02:00,54.0,42.0,30.09,West,277,11.0,14.0,64,0.00,,,0.00,,2013-03-31 03:02:00,
2013-03-30 20:12:00,54.0,42.0,30.09,West,277,11.0,14.0,64,0.00,,,0.00,,2013-03-31 03:12:00,
2013-03-30 20:21:00,54.0,43.0,30.10,WNW,286,10.0,13.0,67,0.00,,,0.00,,2013-03-31 03:21:00,
2013-03-30 20:32:00,54.0,43.0,30.10,West,281,11.0,14.0,67,0.00,,,0.00,,2013-03-31 03:32:00,
2013-03-30 20:43:00,54.0,43.0,30.10,West,281,11.0,14.0,67,0.00,,,0.00,,2013-03-31 03:43:00,
2013-03-30 20:53:00,53.0,44.0,30.10,West,271,11.0,13.0,72,0.00,,,0.00,,2013-03-31 03:53:00,
2013-03-30 21:02:00,51.0,-99.9,30.11,West,270,9.0,12.0,76,0.00,,,0.00,,2013-03-31 04:02:00,
2013-03-30 21:12:00,51.0,44.0,30.11,West,270,9.0,12.0,76,0.00,,,0.00,,2013-03-31 04:12:00,
2013-03-30 21:22:00,50.0,45.0,30.11,West,266,9.0,11.0,82,0.00,,,0.00,,2013-03-31 04:22:00,
2013-03-30 21:32:00,50.0,46.0,30.11,West,275,8.0,10.0,87,0.00,,,0.00,,2013-03-31 04:32:00,
2013-03-30 21:42:00,50.0,46.0,30.11,West,275,8.0,10.0,87,0.00,,,0.00,,2013-03-31 04:42:00,
2013-03-30 21:52:00,49.0,46.0,30.12,West,269,10.0,13.0,89,0.00,,,0.00,,2013-03-31 04:52:00,
2013-03-30 22:02:00,50.0,45.0,30.12,WNW,283,13.0,15.0,84,0.00,,,0.00,,2013-03-31 05:02:00,
2013-03-30 22:12:00,50.0,45.0,30.12,WNW,283,13.0,15.0,84,0.00,,,0.00,,2013-03-31 05:12:00,
2013-03-30 22:22:00,51.0,45.0,30.13,West,273,10.0,14.0,79,0.00,,,0.00,,2013-03-31 05:22:00,
2013-03-30 22:32:00,52.0,45.0,30.14,West,276,11.0,14.0,76,0.00,,,0.00,,2013-03-31 05:32:00,
2013-03-30 22:42:00,52.0,45.0,30.14,West,276,11.0,14.0,76,0.00,,,0.00,,2013-03-31 05:42:00,
2013-03-30 22:52:00,52.0,45.0,30.14,WNW,285,12.0,15.0,77,0.00,,,0.00,,2013-03-31 05:52:00,
2013-03-30 23:01:00,52.0,46.0,30.14,West,276,11.0,14.0,79,0.00,,,0.00,,2013-03-31 06:01:00,
2013-03-30 23:12:00,52.0,46.0,30.14,West,276,11.0,14.0,79,0.00,,,0.00,,2013-03-31 06:12:00,
2013-03-30 23:22:00,52.0,46.0,30.14,West,275,7.0,13.0,80,0.00,,,0.00,,2013-03-31 06:22:00,
2013-03-30 23:32:00,52.0,47.0,30.14,West,268,6.0,10.0,82,0.00,,,0.00,,2013-03-31 06:32:00,
2013-03-30 23:42:00,52.0,47.0,30.14,West,268,6.0,10.0,82,0.00,,,0.00,,2013-03-31 06:42:00,
2013-03-30 23:52:00,49.0,47.0,30.15,WNW,282,10.0,13.0,92,0.00,,,0.00,,2013-03-31 06:52:00,